createdAt,value
2023-03-16T01:02:43.055Z,9.82
2023-03-16T01:03:43.070Z,9.84
2023-03-16T01:04:43.009Z,9.76
2023-03-16T01:05:42.983Z,9.77
2023-03-16T01:06:42.936Z,9.77
2023-03-16T01:07:42.883Z,9.71
2023-03-16T01:08:42.858Z,9.71
2023-03-16T01:09:42.855Z,9.75
2023-03-16T01:10:42.781Z,9.70
2023-03-16T01:11:42.756Z,9.80
2023-03-16T01:12:42.731Z,9.61
2023-03-16T01:13:42.690Z,9.56
2023-03-16T01:14:42.647Z,9.70
2023-03-16T01:15:42.601Z,9.56
2023-03-16T01:16:42.641Z,9.49
2023-03-16T01:17:42.556Z,9.55
2023-03-16T01:18:42.513Z,9.63
2023-03-16T01:19:42.480Z,9.44
2023-03-16T01:20:42.439Z,9.64
2023-03-16T01:21:42.432Z,9.48
2023-03-16T01:22:42.380Z,9.43
2023-03-16T01:23:42.341Z,9.35
2023-03-16T01:24:42.325Z,9.54
2023-03-16T01:25:42.275Z,9.55
2023-03-16T01:26:42.243Z,9.52
2023-03-16T01:27:42.222Z,9.43
2023-03-16T01:28:42.175Z,9.43
2023-03-16T01:29:42.132Z,9.61
2023-03-16T01:30:42.149Z,9.44
2023-03-16T01:31:42.075Z,9.29
2023-03-16T01:32:42.095Z,9.42
2023-03-16T01:33:42.001Z,9.32
2023-03-16T01:34:41.979Z,9.52
2023-03-16T01:35:41.982Z,9.19
2023-03-16T01:36:41.921Z,9.21
2023-03-16T01:37:41.885Z,9.28
2023-03-16T01:38:41.854Z,9.19
2023-03-16T01:39:41.808Z,9.10
2023-03-16T01:40:41.777Z,8.98
2023-03-16T01:41:41.758Z,9.03
2023-03-16T01:42:41.723Z,9.02
2023-03-16T01:58:41.199Z,9.08
2023-03-16T02:53:39.416Z,7.93
2023-03-16T02:54:39.260Z,7.89
2023-03-16T02:55:39.241Z,7.88
2023-03-16T02:56:39.214Z,7.85
2023-03-16T02:57:39.215Z,7.85
2023-03-16T02:58:39.166Z,7.78
2023-03-16T02:59:39.131Z,7.82
2023-03-16T03:00:39.131Z,7.84
2023-03-16T03:01:39.082Z,7.82
2023-03-16T03:02:39.063Z,8.07
2023-03-16T03:03:39.073Z,8.15
2023-03-16T03:04:39.035Z,8.23
2023-03-16T03:06:38.956Z,8.49
2023-03-16T03:07:38.932Z,8.46
2023-03-16T03:08:38.909Z,8.65
2023-03-16T03:09:38.873Z,8.83
2023-03-16T03:10:38.840Z,8.83
2023-03-16T03:11:38.810Z,8.81
2023-03-16T03:12:38.776Z,9.10
2023-03-16T03:13:38.745Z,9.15
2023-03-16T03:14:38.720Z,9.08
2023-03-16T03:15:38.686Z,9.26
2023-03-16T03:16:38.749Z,9.37
2023-03-16T03:17:38.615Z,9.22
2023-03-16T03:18:38.580Z,9.34
2023-03-16T03:19:38.559Z,9.46
2023-03-16T03:20:38.533Z,9.57
2023-03-16T03:21:38.492Z,9.63
2023-03-16T03:22:38.462Z,9.76
2023-03-16T03:23:38.463Z,9.72
2023-03-16T03:24:38.394Z,9.84
2023-03-16T03:25:38.388Z,9.88
2023-03-16T03:26:38.333Z,9.88
2023-03-16T03:27:38.366Z,9.94
2023-03-16T03:28:38.294Z,9.88
2023-03-16T03:29:38.244Z,9.94
2023-03-16T03:30:38.221Z,10.01
2023-03-16T03:31:38.261Z,10.35
2023-03-16T03:32:38.188Z,10.40
2023-03-16T03:33:38.126Z,10.28
2023-03-16T03:34:38.079Z,10.50
2023-03-16T03:35:38.079Z,10.37
2023-03-16T03:36:38.029Z,10.54
2023-03-16T03:37:37.994Z,10.31
2023-03-16T03:38:37.963Z,10.47
2023-03-16T03:39:37.929Z,10.58
2023-03-16T03:40:37.896Z,10.73
2023-03-16T03:41:37.867Z,10.78
2023-03-16T03:42:37.832Z,10.56
2023-03-16T03:43:37.816Z,10.70
2023-03-16T03:44:37.772Z,10.65
2023-03-16T03:45:37.799Z,10.58
2023-03-16T03:46:37.860Z,10.79
2023-03-16T03:48:37.683Z,10.75
2023-03-16T03:49:37.628Z,10.65
2023-03-16T03:50:37.592Z,10.72
2023-03-16T03:51:37.562Z,10.86
2023-03-16T03:52:37.530Z,10.71
2023-03-16T03:53:37.498Z,10.82
2023-03-16T03:54:37.459Z,10.75
2023-03-16T03:55:37.440Z,10.75
2023-03-16T03:56:37.397Z,10.62
2023-03-16T03:57:37.373Z,10.69
2023-03-16T03:58:37.333Z,10.42
2023-03-16T03:59:37.299Z,10.33
2023-03-16T04:00:37.268Z,10.18
2023-03-16T04:01:37.236Z,10.10
2023-03-16T04:02:37.320Z,9.98
2023-03-16T04:03:37.151Z,9.98
2023-03-16T04:04:37.140Z,9.94
2023-03-16T04:05:37.081Z,9.78
2023-03-16T04:06:37.034Z,9.94
2023-03-16T04:07:37.018Z,9.71
2023-03-16T04:08:36.954Z,9.64
2023-03-16T04:09:36.916Z,9.41
2023-03-16T04:10:36.886Z,9.61
2023-03-16T04:11:36.860Z,9.38
2023-03-16T04:12:36.821Z,9.64
2023-03-16T04:13:36.774Z,9.23
2023-03-16T04:14:36.757Z,9.32
2023-03-16T04:15:36.709Z,9.12
2023-03-16T04:16:36.748Z,9.07
2023-03-16T04:17:36.649Z,9.01
2023-03-16T04:18:38.327Z,8.84
2023-03-16T04:19:36.569Z,8.86
2023-03-16T04:20:36.560Z,8.64
2023-03-16T04:21:36.534Z,8.57
2023-03-16T04:22:36.482Z,8.56
2023-03-16T04:23:36.466Z,8.43
2023-03-16T04:24:36.437Z,8.46
2023-03-16T04:25:36.404Z,8.28
2023-03-16T04:26:36.349Z,8.36
2023-03-16T04:27:36.337Z,8.35
2023-03-16T04:28:36.286Z,8.19
2023-03-16T04:29:36.264Z,8.24
2023-03-16T04:30:36.248Z,8.04
2023-03-16T04:31:36.169Z,8.22
2023-03-16T04:32:36.182Z,8.09
2023-03-16T04:33:36.099Z,8.09
2023-03-16T04:34:36.077Z,8.09
2023-03-16T04:35:36.059Z,7.90
2023-03-16T04:36:35.991Z,7.93
2023-03-16T04:37:35.950Z,8.05
2023-03-16T04:38:35.914Z,7.83
2023-03-16T04:39:35.876Z,7.77
2023-03-16T04:40:35.840Z,7.90
2023-03-16T04:41:35.795Z,7.75
2023-03-16T04:42:35.787Z,7.82
2023-03-16T04:43:35.743Z,7.86
2023-03-16T04:44:35.740Z,7.79
2023-03-16T04:45:35.690Z,7.63
2023-03-16T04:46:35.652Z,7.69
2023-03-16T04:47:35.613Z,7.73
2023-03-16T04:48:35.608Z,7.86
2023-03-16T04:49:35.553Z,7.80
2023-03-16T04:50:35.538Z,7.81
2023-03-16T04:51:35.483Z,7.76
2023-03-16T04:52:35.464Z,7.61
2023-03-16T04:53:35.417Z,7.62
2023-03-16T04:54:35.398Z,7.71
2023-03-16T04:55:35.370Z,7.65
2023-03-16T04:56:35.384Z,7.78
2023-03-16T04:57:35.318Z,7.61
2023-03-16T04:58:35.337Z,7.64
2023-03-16T04:59:35.262Z,7.46
2023-03-16T05:00:35.215Z,7.33
2023-03-16T05:01:35.173Z,7.42
2023-03-16T05:02:35.083Z,7.37
2023-03-16T05:03:35.135Z,7.33
2023-03-16T05:04:35.071Z,7.37
2023-03-16T05:05:35.077Z,7.41
2023-03-16T05:06:34.946Z,7.25
2023-03-16T05:07:34.906Z,7.26
2023-03-16T05:08:34.872Z,7.27
2023-03-16T05:09:34.843Z,7.03
2023-03-16T05:10:34.837Z,7.22
2023-03-16T05:11:34.771Z,7.20
2023-03-16T05:12:34.752Z,7.07
2023-03-16T05:13:34.738Z,7.16
2023-03-16T05:14:34.689Z,7.13
2023-03-16T05:15:34.668Z,7.19
2023-03-16T05:16:34.624Z,7.16
2023-03-16T05:17:34.601Z,7.24
2023-03-16T05:18:34.560Z,7.41
2023-03-16T05:19:34.512Z,7.23
2023-03-16T05:20:34.494Z,7.46
2023-03-16T05:21:34.442Z,7.67
2023-03-16T05:22:34.414Z,7.57
2023-03-16T05:23:34.387Z,7.47
2023-03-16T05:24:34.338Z,7.65
2023-03-16T05:25:34.307Z,7.74
2023-03-16T05:26:34.274Z,7.85
2023-03-16T05:27:34.251Z,7.78
2023-03-16T05:28:34.207Z,7.96
2023-03-16T05:29:34.179Z,8.10
2023-03-16T05:30:34.170Z,7.92
2023-03-16T05:31:34.173Z,7.94
2023-03-16T05:32:34.125Z,8.10
2023-03-16T05:33:34.011Z,8.33
2023-03-16T05:34:33.993Z,8.27
2023-03-16T05:35:34.031Z,8.27
2023-03-16T05:36:33.915Z,8.24
2023-03-16T05:37:33.879Z,8.36
2023-03-16T05:38:33.851Z,8.34
2023-03-16T05:39:33.849Z,8.33
2023-03-16T05:40:33.787Z,8.54
2023-03-16T05:41:33.749Z,8.22
2023-03-16T05:42:33.686Z,8.36
2023-03-16T05:43:33.697Z,8.37
2023-03-16T05:44:33.626Z,8.42
2023-03-16T05:45:33.588Z,8.46
2023-03-16T05:46:33.642Z,8.54
2023-03-16T05:47:33.493Z,8.29
2023-03-16T05:48:33.461Z,8.44
2023-03-16T05:49:33.411Z,8.46
2023-03-16T05:50:33.375Z,8.57
2023-03-16T05:51:33.330Z,8.50
2023-03-16T05:52:33.294Z,8.64
2023-03-16T05:53:33.257Z,8.69
2023-03-16T05:54:33.225Z,8.55
2023-03-16T05:55:33.196Z,8.66
2023-03-16T05:56:33.160Z,8.52
2023-03-16T05:57:33.099Z,8.75
2023-03-16T05:58:33.065Z,8.36
2023-03-16T05:59:33.034Z,8.46
2023-03-16T06:00:33.002Z,8.48
2023-03-16T06:01:32.952Z,8.51
2023-03-16T06:02:32.932Z,8.53
2023-03-16T06:03:32.866Z,8.72
2023-03-16T06:04:32.885Z,8.78
2023-03-16T06:05:32.803Z,8.62
2023-03-16T06:06:32.767Z,8.52
2023-03-16T06:07:32.737Z,8.71
2023-03-16T06:08:32.767Z,8.27
2023-03-16T06:09:32.678Z,8.36
2023-03-16T06:10:32.660Z,8.30
2023-03-16T06:11:32.616Z,8.37
2023-03-16T06:12:32.576Z,8.25
2023-03-16T06:13:32.527Z,8.16
2023-03-16T06:14:32.509Z,8.12
2023-03-16T06:15:32.445Z,8.01
2023-03-16T06:16:32.496Z,7.87
2023-03-16T06:17:32.377Z,7.90
2023-03-16T06:18:32.329Z,7.81
2023-03-16T06:19:32.289Z,7.82
2023-03-16T06:20:32.244Z,7.86
2023-03-16T06:21:32.235Z,7.87
2023-03-16T06:22:32.190Z,7.77
2023-03-16T06:23:32.127Z,7.89
2023-03-16T06:24:32.099Z,7.85
2023-03-16T06:25:32.055Z,7.75
2023-03-16T06:26:32.068Z,7.65
2023-03-16T06:27:32.024Z,7.70
2023-03-16T06:28:31.962Z,7.49
2023-03-16T06:29:31.888Z,7.58
2023-03-16T06:30:31.861Z,7.68
2023-03-16T06:31:31.926Z,7.62
2023-03-16T06:32:31.886Z,7.70
2023-03-16T06:33:31.748Z,7.73
2023-03-16T06:34:31.712Z,7.93
2023-03-16T06:47:31.200Z,12.24
2023-03-16T06:48:31.273Z,12.36
2023-03-16T06:49:31.217Z,12.43
2023-03-16T06:50:31.121Z,12.74
2023-03-16T06:51:31.079Z,12.97
2023-03-16T06:52:30.981Z,13.84
2023-03-16T06:53:30.992Z,14.41
2023-03-16T06:54:30.920Z,15.81
2023-03-16T06:55:30.873Z,15.49
2023-03-16T06:56:30.839Z,16.76
2023-03-16T06:57:30.783Z,17.45
2023-03-16T06:58:30.761Z,18.38
2023-03-16T06:59:30.707Z,19.85
2023-03-16T07:00:30.823Z,21.95
2023-03-16T07:01:30.747Z,22.25
2023-03-16T07:02:30.598Z,23.55
2023-03-16T07:03:30.556Z,26.29
2023-03-16T07:04:30.542Z,26.31
2023-03-16T07:05:30.435Z,27.08
2023-03-16T07:06:30.420Z,28.70
2023-03-16T07:07:30.335Z,28.48
2023-03-16T07:08:30.304Z,30.54
2023-03-16T07:10:30.582Z,33.88
2023-03-16T07:11:31.009Z,33.96
2023-03-16T07:12:30.106Z,34.02
2023-03-16T07:13:30.053Z,34.41
2023-03-16T07:14:30.051Z,35.84
2023-03-16T07:15:29.970Z,37.30
2023-03-16T07:16:29.980Z,42.14
2023-03-16T07:17:29.889Z,43.81
2023-03-16T07:18:29.826Z,44.00
2023-03-16T07:19:29.812Z,44.63
2023-03-16T07:20:30.219Z,46.98
2023-03-16T07:21:29.716Z,48.85
2023-03-16T07:22:29.700Z,53.27
2023-03-16T07:23:29.617Z,55.53
2023-03-16T07:24:29.675Z,58.15
2023-03-16T07:25:29.530Z,58.76
2023-03-16T07:26:29.494Z,59.04
2023-03-16T07:27:29.428Z,59.11
2023-03-16T07:28:29.386Z,59.16
2023-03-16T07:29:29.327Z,58.61
2023-03-16T07:30:29.779Z,59.11
2023-03-16T07:31:29.226Z,63.80
2023-03-16T07:32:29.223Z,71.75
2023-03-16T07:33:29.101Z,79.81
2023-03-16T07:34:29.052Z,84.31
2023-03-16T07:35:29.017Z,93.41
2023-03-16T07:36:28.925Z,99.39
2023-03-16T07:37:29.575Z,104.66
2023-03-16T07:38:28.762Z,112.65
2023-03-16T07:39:28.675Z,116.99
2023-03-16T07:40:28.826Z,123.77
2023-03-16T07:41:28.981Z,115.42
2023-03-16T07:42:28.435Z,113.01
2023-03-16T07:43:28.336Z,117.23
2023-03-16T07:44:28.230Z,40.53
2023-03-16T07:45:28.371Z,11.08
2023-03-16T07:46:28.147Z,4.31
2023-03-16T07:47:27.999Z,6.12
2023-03-16T07:48:27.970Z,7.78
2023-03-16T07:49:27.833Z,8.59
2023-03-16T07:50:27.941Z,11.80
2023-03-16T07:51:27.687Z,17.37
2023-03-16T07:52:27.588Z,19.31
2023-03-16T07:53:27.517Z,20.16
2023-03-16T07:54:27.421Z,20.64
2023-03-16T07:55:27.358Z,21.31
2023-03-16T07:56:31.541Z,23.34
2023-03-16T07:57:28.207Z,23.42
2023-03-16T07:58:27.148Z,23.46
2023-03-16T07:59:27.114Z,23.96
2023-03-16T08:00:28.040Z,25.05
2023-03-16T08:01:26.912Z,27.81
2023-03-16T08:02:27.036Z,30.43
2023-03-16T08:03:26.834Z,31.95
2023-03-16T08:04:26.718Z,32.60
2023-03-16T08:05:27.872Z,34.32
2023-03-16T08:06:26.617Z,36.03
2023-03-16T08:07:26.546Z,36.11
2023-03-16T08:08:26.465Z,36.45
2023-03-16T08:09:26.413Z,37.02
2023-03-16T08:10:26.730Z,38.37
2023-03-16T08:11:26.348Z,40.68
2023-03-16T08:12:26.249Z,43.12
2023-03-16T08:13:26.204Z,42.54
2023-03-16T08:14:26.188Z,43.22
2023-03-16T08:15:26.075Z,44.44
2023-03-16T08:16:26.084Z,45.85
2023-03-16T08:17:25.980Z,45.68
2023-03-16T08:18:25.867Z,46.86
2023-03-16T08:19:25.818Z,47.34
2023-03-16T08:20:25.782Z,49.54
2023-03-16T08:21:25.762Z,48.96
2023-03-16T08:22:25.645Z,49.84
2023-03-16T08:23:25.626Z,51.09
2023-03-16T08:24:25.540Z,52.16
2023-03-16T08:25:25.584Z,52.87
2023-03-16T08:26:25.525Z,53.19
2023-03-16T08:27:25.355Z,54.83
2023-03-16T08:28:25.286Z,55.77
2023-03-16T08:29:26.090Z,53.10
2023-03-16T08:30:25.504Z,55.93
2023-03-16T08:31:25.260Z,54.57
2023-03-16T08:32:25.141Z,58.68
2023-03-16T08:33:25.048Z,61.48
2023-03-16T08:34:24.997Z,52.69
2023-03-16T08:35:24.989Z,35.70
2023-03-16T08:36:24.870Z,40.68
2023-03-16T08:37:24.804Z,39.17
2023-03-16T08:38:24.755Z,37.95
2023-03-16T08:39:24.691Z,37.51
2023-03-16T08:40:24.625Z,38.54
2023-03-16T08:41:24.577Z,38.67
2023-03-16T08:42:24.527Z,39.94
2023-03-16T08:43:24.516Z,4.75
2023-03-16T08:44:24.519Z,14.69
2023-03-16T08:45:24.375Z,25.19
2023-03-16T08:46:24.391Z,26.15
2023-03-16T08:47:24.240Z,6.85
2023-03-16T08:48:24.198Z,2.29
2023-03-16T08:49:24.212Z,1.24
2023-03-16T08:50:24.107Z,1.05
2023-03-16T08:51:24.080Z,0.71
2023-03-16T08:52:24.145Z,0.66
2023-03-16T08:53:24.041Z,0.55
2023-03-16T08:54:23.942Z,0.52
2023-03-16T08:55:23.909Z,0.49
2023-03-16T08:56:23.895Z,0.49
2023-03-16T08:57:23.845Z,0.48
2023-03-16T08:58:23.799Z,0.49
2023-03-16T08:59:30.060Z,0.49
2023-03-16T09:00:24.892Z,0.49
2023-03-16T09:01:23.754Z,0.49
2023-03-16T09:02:23.743Z,0.41
2023-03-16T09:03:23.712Z,0.40
2023-03-16T09:04:23.774Z,0.36
2023-03-16T09:05:23.650Z,0.42
2023-03-16T09:06:23.606Z,0.40
2023-03-16T09:07:23.683Z,0.44
2023-03-16T09:08:23.515Z,0.49
2023-03-16T09:09:23.538Z,0.48
2023-03-16T09:10:23.604Z,0.41
2023-03-16T09:11:23.473Z,0.34
2023-03-16T09:12:23.429Z,0.34
2023-03-16T09:13:23.387Z,0.34
2023-03-16T09:14:23.355Z,0.34
2023-03-16T09:15:23.330Z,0.84
2023-03-16T09:16:23.364Z,1.48
2023-03-16T09:17:23.319Z,2.08
2023-03-16T09:18:23.324Z,3.19
2023-03-16T09:19:23.296Z,4.31
2023-03-16T09:20:26.792Z,4.50
2023-03-16T09:21:24.191Z,4.54
2023-03-16T09:22:23.213Z,4.87
2023-03-16T09:23:23.134Z,5.89
2023-03-16T09:24:23.107Z,8.10
2023-03-16T09:25:23.101Z,14.92
2023-03-16T09:26:23.228Z,19.38
2023-03-16T09:27:23.121Z,23.32
2023-03-16T09:28:22.970Z,27.28
2023-03-16T09:29:23.074Z,31.27
2023-03-16T09:30:22.869Z,36.98
2023-03-16T09:31:22.922Z,52.01
2023-03-16T09:32:22.796Z,63.74
2023-03-16T09:33:22.778Z,71.46
2023-03-16T09:34:22.726Z,73.84
2023-03-16T09:35:22.700Z,90.79
2023-03-16T09:36:22.628Z,101.57
2023-03-16T09:37:23.566Z,115.14
2023-03-16T09:38:22.543Z,115.49
2023-03-16T09:39:22.502Z,118.47
2023-03-16T09:40:22.669Z,126.84
2023-03-16T09:41:22.464Z,144.06
2023-03-16T09:42:22.363Z,170.08
2023-03-16T09:43:22.332Z,185.79
2023-03-16T09:44:22.638Z,190.21
2023-03-16T09:45:22.260Z,193.12
2023-03-16T09:46:22.212Z,205.73
2023-03-16T09:47:22.131Z,211.13
2023-03-16T09:48:22.102Z,216.13
2023-03-16T09:49:22.100Z,225.39
2023-03-16T09:50:22.017Z,221.75
2023-03-16T09:51:22.007Z,225.59
2023-03-16T09:52:21.896Z,223.83
2023-03-16T09:53:21.832Z,226.97
2023-03-16T09:54:21.807Z,200.08
2023-03-16T09:55:21.756Z,176.50
2023-03-16T09:56:21.728Z,136.14
2023-03-16T09:57:21.681Z,53.95
2023-03-16T11:50:16.309Z,194.71
2023-03-16T11:53:16.553Z,182.33
2023-03-16T11:54:16.112Z,187.35
2023-03-16T11:55:16.055Z,180.91
2023-03-16T11:56:15.997Z,182.79
2023-03-16T11:57:15.976Z,177.38
2023-03-16T11:58:15.902Z,175.68
2023-03-16T11:59:15.877Z,178.46
2023-03-16T12:00:15.901Z,176.59
2023-03-16T12:01:15.787Z,178.48
2023-03-16T12:02:15.719Z,172.63
2023-03-16T12:03:15.686Z,173.39
2023-03-16T12:04:15.621Z,176.07
2023-03-16T12:05:15.538Z,172.42
2023-03-16T12:06:23.013Z,172.34
2023-03-16T12:08:15.422Z,172.61
2023-03-16T12:09:15.420Z,173.55
2023-03-16T12:10:15.303Z,173.17
2023-03-16T12:11:15.249Z,168.09
2023-03-16T12:12:15.167Z,163.34
2023-03-16T12:13:15.144Z,164.64
2023-03-16T12:14:15.110Z,160.94
2023-03-16T12:15:15.026Z,160.50
2023-03-16T12:16:15.012Z,156.55
2023-03-16T12:17:14.941Z,154.30
2023-03-16T12:18:14.908Z,152.10
2023-03-16T12:19:14.857Z,152.61
2023-03-16T12:20:14.873Z,149.97
2023-03-16T12:21:14.791Z,149.07
2023-03-16T12:22:15.680Z,145.87
2023-03-16T12:23:14.646Z,144.33
2023-03-16T12:24:14.614Z,143.45
2023-03-16T12:25:14.576Z,143.25
2023-03-16T12:26:14.559Z,139.52
2023-03-16T12:27:14.477Z,136.02
2023-03-16T12:28:14.439Z,130.92
2023-03-16T12:29:14.417Z,128.49
2023-03-16T12:30:14.403Z,129.91
2023-03-16T12:31:14.328Z,124.75
2023-03-16T12:32:14.249Z,126.83
2023-03-16T12:33:14.182Z,125.72
2023-03-16T12:34:14.145Z,126.97
2023-03-16T12:35:14.082Z,129.16
2023-03-16T12:36:14.050Z,126.68
2023-03-16T12:37:13.981Z,126.98
2023-03-16T12:38:13.949Z,127.13
2023-03-16T12:39:13.885Z,132.04
2023-03-16T12:40:13.941Z,129.94
2023-03-16T12:41:15.988Z,130.28
2023-03-16T12:42:13.754Z,130.36
2023-03-16T12:43:13.695Z,130.88
2023-03-16T12:44:13.746Z,130.85
2023-03-16T12:45:13.600Z,129.79
2023-03-16T12:46:13.600Z,130.31
2023-03-16T12:47:13.514Z,130.11
2023-03-16T12:48:13.466Z,131.16
2023-03-16T12:49:13.387Z,134.40
2023-03-16T12:50:13.366Z,130.86
2023-03-16T12:51:13.283Z,130.07
2023-03-16T12:52:13.239Z,130.31
2023-03-16T12:53:13.165Z,128.88
2023-03-16T12:54:13.132Z,129.17
2023-03-16T12:55:13.071Z,129.76
2023-03-16T12:56:13.040Z,130.22
2023-03-16T12:57:12.982Z,131.16
2023-03-16T12:58:12.939Z,132.89
2023-03-16T12:59:12.867Z,131.12
2023-03-16T13:00:12.849Z,131.35
2023-03-16T13:01:12.846Z,131.98
2023-03-16T13:02:12.723Z,131.69
2023-03-16T13:03:12.662Z,132.69
2023-03-16T13:04:12.682Z,130.88
2023-03-16T13:05:12.563Z,131.36
2023-03-16T13:06:12.529Z,132.97
2023-03-16T13:07:12.446Z,131.86
2023-03-16T13:08:12.405Z,130.81
2023-03-16T13:09:12.344Z,130.73
2023-03-16T13:10:12.408Z,129.71
2023-03-16T13:11:12.247Z,129.05
2023-03-16T13:12:14.709Z,129.49
2023-03-16T13:13:12.269Z,128.61
2023-03-16T13:14:12.209Z,127.58
2023-03-16T13:15:12.147Z,125.69
2023-03-16T13:16:12.166Z,124.21
2023-03-16T13:17:12.088Z,126.29
2023-03-16T13:18:11.980Z,126.31
2023-03-16T13:19:11.937Z,127.81
2023-03-16T13:20:13.742Z,122.89
2023-03-16T13:21:12.826Z,123.06
2023-03-16T13:22:11.782Z,123.36
2023-03-16T13:23:11.715Z,124.06
2023-03-16T13:46:46.565Z,0.50
2023-03-16T13:47:46.576Z,0.50
2023-03-16T13:48:46.571Z,0.50
2023-03-16T13:49:46.571Z,0.50
2023-03-16T13:50:46.556Z,0.50
2023-03-16T13:51:46.558Z,0.50
2023-03-16T13:52:46.545Z,0.50
2023-03-16T13:53:46.564Z,0.50
2023-03-16T13:54:46.532Z,0.51
2023-03-16T13:55:46.534Z,0.51
2023-03-16T13:56:46.621Z,0.51
2023-03-16T13:57:46.573Z,0.50
2023-03-16T13:58:46.565Z,0.51
2023-03-16T13:59:46.575Z,0.51
2023-03-16T14:00:46.564Z,0.50
2023-03-16T14:01:46.570Z,0.50
2023-03-16T14:02:46.596Z,0.51
2023-03-16T14:03:46.580Z,0.51
2023-03-16T14:04:46.578Z,0.51
2023-03-16T14:05:46.581Z,0.51
2023-03-16T14:06:46.581Z,0.52
2023-03-16T14:07:46.555Z,0.51
2023-03-16T14:08:46.555Z,0.51
2023-03-16T14:09:46.560Z,0.51
2023-03-16T14:10:46.557Z,0.52
2023-03-16T14:11:46.559Z,0.51
2023-03-16T14:12:46.561Z,0.51
2023-03-16T14:13:46.563Z,0.51
2023-03-16T14:14:46.568Z,0.51
2023-03-16T14:15:46.585Z,0.51
2023-03-16T14:16:46.562Z,0.50
2023-03-16T14:17:46.565Z,0.51
2023-03-16T14:18:46.580Z,0.51
2023-03-16T14:19:46.580Z,0.52
2023-03-16T14:20:46.572Z,0.50
2023-03-16T14:21:46.578Z,0.51
2023-03-16T14:22:46.570Z,0.51
2023-03-16T14:23:46.574Z,0.52
2023-03-16T14:24:46.582Z,0.52
2023-03-16T14:25:46.572Z,0.50
2023-03-16T14:26:46.595Z,0.50
2023-03-16T14:27:46.575Z,0.51
2023-03-16T14:28:46.586Z,0.51
2023-03-16T14:29:46.592Z,0.51
2023-03-16T14:30:47.278Z,0.51
2023-03-16T14:31:46.601Z,0.51
2023-03-16T14:32:46.623Z,0.51
2023-03-16T14:33:47.248Z,0.51
2023-03-16T14:34:46.593Z,0.51
2023-03-16T14:35:46.623Z,0.51
2023-03-16T14:36:46.596Z,0.50
2023-03-16T14:37:46.597Z,0.51
2023-03-16T14:38:46.602Z,0.51
2023-03-16T14:39:46.607Z,0.51
2023-03-16T14:40:46.607Z,0.51
2023-03-16T14:41:46.606Z,0.50
2023-03-16T14:42:46.578Z,0.51
2023-03-16T14:43:46.615Z,0.51
2023-03-16T14:44:46.584Z,0.52
2023-03-16T14:45:46.685Z,0.52
2023-03-16T14:46:46.577Z,0.51
2023-03-16T14:47:46.582Z,0.51
2023-03-16T14:48:46.606Z,0.52
2023-03-16T14:49:46.618Z,0.52
2023-03-16T14:50:46.567Z,0.52
2023-03-16T14:51:46.585Z,0.51
2023-03-16T14:52:46.559Z,0.51
2023-03-16T14:53:46.565Z,0.52
2023-03-16T14:54:46.561Z,0.51
2023-03-16T14:55:46.560Z,0.51
2023-03-16T14:56:46.566Z,0.52
2023-03-16T14:57:46.561Z,0.50
2023-03-16T14:58:46.552Z,0.52
2023-03-16T14:59:46.563Z,0.52
2023-03-16T15:00:53.056Z,0.51
2023-03-16T15:01:47.581Z,0.51
2023-03-16T15:02:47.261Z,0.51
2023-03-16T15:03:46.539Z,0.51
2023-03-16T15:04:46.545Z,0.50
2023-03-16T15:05:46.545Z,0.52
2023-03-16T15:06:46.530Z,0.51
2023-03-16T15:07:46.551Z,0.51
2023-03-16T15:08:46.515Z,0.51
2023-03-16T15:09:46.520Z,0.51
2023-03-16T15:10:46.512Z,0.52
2023-03-16T15:11:46.523Z,0.51
2023-03-16T15:12:46.535Z,0.51
2023-03-16T15:13:47.147Z,0.51
2023-03-16T15:14:46.527Z,0.52
2023-03-16T15:15:46.554Z,0.50
2023-03-16T15:16:46.547Z,0.51
2023-03-16T15:17:46.539Z,0.52
2023-03-16T15:18:46.533Z,0.51
2023-03-16T15:19:46.561Z,0.50
2023-03-16T15:20:46.523Z,0.51
2023-03-16T15:21:46.528Z,0.51
2023-03-16T15:22:46.516Z,0.51
2023-03-16T15:23:46.529Z,0.51
2023-03-16T15:24:46.904Z,0.51
2023-03-16T15:25:46.539Z,0.50
2023-03-16T15:26:46.531Z,0.50
2023-03-16T15:27:46.540Z,0.50
2023-03-16T15:28:46.548Z,0.51
2023-03-16T15:29:46.541Z,0.51
2023-03-16T15:30:46.546Z,0.51
2023-03-16T15:31:46.593Z,0.50
2023-03-16T15:32:46.636Z,0.51
2023-03-16T15:33:46.549Z,0.51
2023-03-16T15:34:46.604Z,0.51
2023-03-16T15:35:46.612Z,0.51
2023-03-16T15:36:46.570Z,0.51
2023-03-16T15:37:46.559Z,0.51
2023-03-16T15:38:46.569Z,0.50
2023-03-16T15:39:46.552Z,0.51
2023-03-16T15:40:46.553Z,0.52
2023-03-16T15:41:48.061Z,0.51
2023-03-16T15:42:47.058Z,0.52
2023-03-16T15:43:46.562Z,0.51
2023-03-16T15:44:46.559Z,0.51
2023-03-16T15:57:46.542Z,0.51
2023-03-16T16:28:46.709Z,0.50
2023-03-16T16:29:46.725Z,0.51
2023-03-16T16:30:46.746Z,0.51
2023-03-16T16:31:46.797Z,0.52
2023-03-16T16:32:46.791Z,0.52
2023-03-16T16:33:46.763Z,0.52
2023-03-16T16:35:01.751Z,0.51
2023-03-16T16:35:47.830Z,0.51
2023-03-16T16:36:46.777Z,0.51
2023-03-16T16:37:46.773Z,0.50
2023-03-16T16:38:46.774Z,0.52
2023-03-16T16:39:46.797Z,0.51
2023-03-16T16:40:46.812Z,0.51
2023-03-16T16:41:46.816Z,0.51
2023-03-16T16:42:46.817Z,0.51
2023-03-16T16:43:46.819Z,0.51
2023-03-16T16:44:46.844Z,0.52
2023-03-16T16:45:46.918Z,0.51
2023-03-16T16:46:46.871Z,0.51
2023-03-16T16:47:46.858Z,0.52
2023-03-16T16:48:46.868Z,0.52
2023-03-16T16:49:46.872Z,0.51
2023-03-16T16:50:46.879Z,0.51
2023-03-16T16:51:46.882Z,0.53
2023-03-16T16:52:46.870Z,0.51
2023-03-16T16:53:46.868Z,0.51
2023-03-16T16:54:46.874Z,0.51
2023-03-16T16:55:46.897Z,0.51
2023-03-16T16:56:46.884Z,0.51
2023-03-16T16:57:46.895Z,0.52
2023-03-16T16:58:46.912Z,0.52
2023-03-16T16:59:46.908Z,0.51
2023-03-16T17:00:46.906Z,0.50
2023-03-16T17:01:46.915Z,0.52
2023-03-16T17:02:46.890Z,0.52
2023-03-16T17:03:46.912Z,0.52
2023-03-16T17:04:46.966Z,0.51
2023-03-16T17:05:46.902Z,0.52
2023-03-16T17:06:46.919Z,0.51
2023-03-16T17:07:46.933Z,0.51
2023-03-16T17:08:46.936Z,0.50
2023-03-16T17:09:46.943Z,0.51
2023-03-16T17:10:46.941Z,0.51
2023-03-16T17:11:46.964Z,0.50
2023-03-16T17:12:46.962Z,0.51
2023-03-16T17:13:46.980Z,0.50
2023-03-16T17:14:46.975Z,0.51
2023-03-16T17:15:47.029Z,0.51
2023-03-16T17:16:47.124Z,0.51
2023-03-16T17:17:47.014Z,0.51
2023-03-16T17:18:47.012Z,0.50
2023-03-16T17:19:47.069Z,0.52
2023-03-16T17:20:47.028Z,0.51
2023-03-16T17:21:47.050Z,0.52
2023-03-16T17:22:47.049Z,0.51
2023-03-16T17:23:47.045Z,0.52
2023-03-16T17:24:47.060Z,0.52
2023-03-16T17:25:47.075Z,0.51
2023-03-16T17:26:47.084Z,0.51
2023-03-16T17:27:47.060Z,0.50
2023-03-16T17:28:47.067Z,0.51
2023-03-16T17:29:47.073Z,0.52
2023-03-16T17:30:47.093Z,0.51
2023-03-16T17:31:47.083Z,0.51
2023-03-16T17:32:47.094Z,0.52
2023-03-16T17:33:47.085Z,0.52
2023-03-16T17:34:47.081Z,0.51
2023-03-16T17:35:47.109Z,0.51
2023-03-16T17:36:47.102Z,0.52
2023-03-16T17:37:47.118Z,0.51
2023-03-16T17:38:47.157Z,0.51
2023-03-16T17:39:47.138Z,0.53
2023-03-16T17:40:47.130Z,0.52
2023-03-16T17:41:47.140Z,0.52
2023-03-16T17:42:47.142Z,0.51
2023-03-16T17:43:47.162Z,0.51
2023-03-16T17:44:47.157Z,0.52
2023-03-16T17:45:47.178Z,0.53
2023-03-16T17:46:47.174Z,0.52
2023-03-16T17:47:47.173Z,0.50
2023-03-16T17:48:47.181Z,0.50
2023-03-16T17:49:47.179Z,0.51
2023-03-16T17:50:47.222Z,0.51
2023-03-16T17:51:47.280Z,0.51
2023-03-16T17:52:47.216Z,0.51
2023-03-16T17:53:47.246Z,0.50
2023-03-16T17:54:47.242Z,0.53
2023-03-16T17:55:47.231Z,0.53
2023-03-16T17:56:47.284Z,0.52
2023-03-16T17:57:47.250Z,0.52
2023-03-16T17:58:47.282Z,0.53
2023-03-16T17:59:47.275Z,0.50
2023-03-16T18:00:47.276Z,0.52
2023-03-16T18:01:47.391Z,0.51
2023-03-16T18:02:47.282Z,0.55
2023-03-16T18:03:47.328Z,0.52
2023-03-16T18:04:47.302Z,0.52
2023-03-16T18:05:47.298Z,0.51
2023-03-16T18:06:47.345Z,0.52
2023-03-16T18:07:47.306Z,0.52
2023-03-16T18:08:48.423Z,0.51
2023-03-16T18:09:47.304Z,0.51
2023-03-16T18:10:47.327Z,0.52
2023-03-16T18:11:47.327Z,0.51
2023-03-16T18:12:47.339Z,0.55
2023-03-16T18:13:47.349Z,0.54
2023-03-16T18:14:47.351Z,0.51
2023-03-16T18:15:47.495Z,0.52
2023-03-16T18:16:47.351Z,0.52
2023-03-16T18:17:47.334Z,0.54
2023-03-16T18:18:47.347Z,0.54
2023-03-16T18:19:47.345Z,0.54
2023-03-16T18:20:47.349Z,0.52
2023-03-16T18:21:47.382Z,0.52
2023-03-16T18:22:47.374Z,0.54
2023-03-16T18:23:47.360Z,0.53
2023-03-16T18:24:47.374Z,0.51
2023-03-16T18:25:47.391Z,0.51
2023-03-16T18:26:47.401Z,0.52
2023-03-16T18:27:47.416Z,0.53
2023-03-16T18:28:47.415Z,0.53
2023-03-16T18:29:47.403Z,0.55
2023-03-16T18:30:47.447Z,0.52